createdAt,value
2022-12-23T00:01:28.890Z,8.71
2022-12-23T00:03:59.574Z,9.43
2022-12-23T00:06:27.103Z,9.52
2022-12-23T00:08:58.924Z,9.33
2022-12-23T00:11:27.578Z,8.50
2022-12-23T00:14:20.066Z,9.11
2022-12-23T00:16:48.554Z,9.52
2022-12-23T00:19:15.477Z,9.15
2022-12-23T00:21:42.145Z,8.79
2022-12-23T00:24:09.008Z,9.59
2022-12-23T00:26:35.692Z,9.57
2022-12-23T00:29:02.539Z,9.54
2022-12-23T00:31:29.304Z,9.52
2022-12-23T00:33:56.217Z,9.90
2022-12-23T00:36:22.924Z,10.10
2022-12-23T00:39:08.114Z,10.72
2022-12-23T00:41:53.683Z,10.81
2022-12-23T00:44:20.426Z,10.56
2022-12-23T00:46:47.111Z,9.78
2022-12-23T00:49:33.344Z,9.22
2022-12-23T00:52:00.310Z,9.04
2022-12-23T00:54:27.237Z,9.37
2022-12-23T00:56:53.892Z,9.28
2022-12-23T00:59:20.621Z,9.16
2022-12-23T01:02:05.815Z,9.79
2022-12-23T01:04:51.151Z,9.44
2022-12-23T01:07:17.797Z,9.33
2022-12-23T01:09:44.490Z,9.48
2022-12-23T01:12:11.175Z,9.46
2022-12-23T01:14:37.832Z,8.44
2022-12-23T01:17:05.582Z,9.17
2022-12-23T01:19:32.266Z,8.69
2022-12-23T01:21:58.920Z,8.60
2022-12-23T01:24:29.433Z,8.65
2022-12-23T01:26:56.176Z,9.05
2022-12-23T01:29:22.835Z,8.92
2022-12-23T01:31:49.574Z,8.65
2022-12-23T01:34:16.270Z,8.91
2022-12-23T01:36:43.013Z,8.54
2022-12-23T01:39:09.707Z,8.21
2022-12-23T01:41:54.999Z,7.86
2022-12-23T01:44:40.188Z,7.34
2022-12-23T01:47:07.329Z,7.55
2022-12-23T01:49:33.986Z,7.75
2022-12-23T01:52:00.691Z,7.74
2022-12-23T01:54:27.350Z,7.64
2022-12-23T01:56:53.980Z,7.21
2022-12-23T01:59:39.269Z,7.01
2022-12-23T02:02:24.445Z,6.58
2022-12-23T02:04:51.237Z,6.90
2022-12-23T02:07:36.604Z,6.92
2022-12-23T02:10:03.712Z,7.12
2022-12-23T02:12:33.505Z,7.61
2022-12-23T02:15:37.733Z,7.44
2022-12-23T02:18:23.137Z,7.22
2022-12-23T02:21:05.543Z,7.38
2022-12-23T02:23:38.438Z,7.84
2022-12-23T02:26:19.183Z,7.69
2022-12-23T02:29:04.260Z,8.15
2022-12-23T02:31:40.208Z,8.07
2022-12-23T02:34:06.859Z,7.59
2022-12-23T02:36:46.023Z,8.50
2022-12-23T02:39:19.156Z,8.27
2022-12-23T02:41:51.760Z,7.88
2022-12-23T02:44:24.608Z,7.54
2022-12-23T02:46:52.388Z,7.03
2022-12-23T02:49:21.211Z,5.93
2022-12-23T02:51:49.388Z,5.63
2022-12-23T02:54:17.407Z,6.16
2022-12-23T02:56:45.331Z,5.96
2022-12-23T02:59:19.096Z,6.03
2022-12-23T03:01:45.880Z,6.47
2022-12-23T03:04:12.680Z,7.42
2022-12-23T03:06:40.048Z,7.64
2022-12-23T03:09:06.967Z,7.37
2022-12-23T03:11:51.386Z,6.47
2022-12-23T03:14:37.093Z,6.47
2022-12-23T03:17:06.503Z,6.44
2022-12-23T03:19:36.297Z,6.09
2022-12-23T03:22:20.374Z,6.58
2022-12-23T03:24:47.000Z,6.49
2022-12-23T03:27:18.265Z,6.37
2022-12-23T03:29:47.978Z,6.77
2022-12-23T03:32:14.652Z,7.06
2022-12-23T03:34:42.407Z,7.93
2022-12-23T03:37:09.847Z,7.91
2022-12-23T03:39:46.433Z,6.75
2022-12-23T03:42:20.895Z,6.81
2022-12-23T03:45:10.671Z,7.11
2022-12-23T03:47:36.042Z,7.71
2022-12-23T03:50:07.020Z,7.20
2022-12-23T03:52:35.678Z,6.37
2022-12-23T03:55:06.968Z,5.59
2022-12-23T03:57:48.392Z,4.96
2022-12-23T04:00:15.065Z,4.90
2022-12-23T04:02:57.854Z,5.60
2022-12-23T04:05:32.362Z,5.89
2022-12-23T04:08:01.304Z,5.92
2022-12-23T04:10:28.039Z,5.84
2022-12-23T04:12:54.711Z,5.87
2022-12-23T04:15:22.312Z,6.36
2022-12-23T04:17:49.376Z,6.56
2022-12-23T04:20:16.194Z,6.21
2022-12-23T04:22:45.467Z,6.04
2022-12-23T04:25:12.594Z,5.92
2022-12-23T04:27:39.369Z,6.27
2022-12-23T04:30:06.742Z,6.04
2022-12-23T04:32:33.392Z,6.34
2022-12-23T04:35:00.150Z,6.16
2022-12-23T04:37:26.851Z,6.25
2022-12-23T04:39:53.496Z,6.44
2022-12-23T04:42:20.159Z,6.55
2022-12-23T04:44:46.806Z,6.53
2022-12-23T04:47:14.157Z,6.97
2022-12-23T04:49:40.833Z,7.10
2022-12-23T04:52:07.520Z,7.13
2022-12-23T04:54:34.413Z,6.41
2022-12-23T04:57:01.098Z,6.16
2022-12-23T04:59:27.864Z,6.56
2022-12-23T05:01:54.656Z,6.16
2022-12-23T05:04:21.467Z,6.02
2022-12-23T05:06:48.169Z,7.23
2022-12-23T05:09:14.900Z,7.59
2022-12-23T05:11:42.586Z,7.94
2022-12-23T05:14:10.178Z,7.16
2022-12-23T05:16:37.045Z,7.22
2022-12-23T05:19:03.835Z,7.28
2022-12-23T05:21:30.539Z,8.24
2022-12-23T05:23:57.173Z,8.56
2022-12-23T05:26:23.971Z,8.19
2022-12-23T05:28:50.678Z,8.31
2022-12-23T05:31:17.631Z,8.13
2022-12-23T05:33:44.457Z,8.44
2022-12-23T05:36:11.307Z,8.18
2022-12-23T05:38:37.932Z,8.13
2022-12-23T05:41:04.815Z,7.57
2022-12-23T05:43:31.550Z,8.00
2022-12-23T05:45:58.326Z,7.65
2022-12-23T05:48:25.040Z,8.53
2022-12-23T05:50:52.281Z,8.78
2022-12-23T05:53:19.460Z,8.96
2022-12-23T05:55:46.393Z,9.05
2022-12-23T05:58:13.067Z,8.51
2022-12-23T06:00:39.717Z,8.14
2022-12-23T06:03:06.525Z,8.19
2022-12-23T06:05:33.309Z,7.21
2022-12-23T06:07:59.932Z,7.39
2022-12-23T06:10:26.622Z,7.13
2022-12-23T06:12:53.286Z,6.25
2022-12-23T06:15:19.980Z,7.48
2022-12-23T06:17:46.598Z,8.06
2022-12-23T06:20:19.940Z,8.73
2022-12-23T06:22:47.564Z,8.61
2022-12-23T06:25:14.225Z,8.46
2022-12-23T06:27:40.936Z,8.49
2022-12-23T06:30:07.957Z,8.59
2022-12-23T06:32:38.192Z,8.77
2022-12-23T06:35:06.125Z,8.65
2022-12-23T06:37:32.788Z,8.50
2022-12-23T06:39:59.446Z,8.84
2022-12-23T06:42:26.079Z,8.93
2022-12-23T06:44:52.704Z,8.89
2022-12-23T06:47:19.378Z,8.64
2022-12-23T06:49:46.040Z,8.69
2022-12-23T06:52:12.742Z,9.15
2022-12-23T06:54:39.393Z,9.45
2022-12-23T06:57:06.122Z,9.96
2022-12-23T06:59:32.811Z,9.91
2022-12-23T07:01:59.638Z,9.99
2022-12-23T07:04:26.438Z,10.27
2022-12-23T07:06:53.141Z,9.94
2022-12-23T07:09:19.795Z,10.09
2022-12-23T07:11:46.464Z,9.74
2022-12-23T07:14:13.103Z,9.31
2022-12-23T07:16:39.860Z,9.57
2022-12-23T07:19:06.669Z,9.14
2022-12-23T07:21:34.607Z,9.06
2022-12-23T07:24:01.333Z,9.16
2022-12-23T07:26:27.970Z,9.32
2022-12-23T07:28:54.611Z,9.45
2022-12-23T07:31:21.356Z,9.37
2022-12-23T07:33:48.221Z,9.38
2022-12-23T07:36:14.948Z,9.67
2022-12-23T07:38:41.697Z,9.64
2022-12-23T07:41:08.382Z,9.41
2022-12-23T07:43:35.045Z,9.05
2022-12-23T07:46:08.530Z,8.75
2022-12-23T07:48:35.243Z,9.79
2022-12-23T07:51:05.025Z,9.55
2022-12-23T07:53:31.764Z,9.47
2022-12-23T07:55:58.413Z,9.77
2022-12-23T07:58:25.298Z,9.27
2022-12-23T08:00:52.130Z,9.73
2022-12-23T08:03:18.939Z,9.95
2022-12-23T08:05:45.747Z,9.91
2022-12-23T08:08:12.822Z,9.95
2022-12-23T08:10:46.165Z,9.49
2022-12-23T08:13:14.984Z,9.21
2022-12-23T08:15:41.643Z,9.34
2022-12-23T08:18:08.273Z,9.19
2022-12-23T08:20:34.969Z,9.48
2022-12-23T08:23:01.731Z,8.75
2022-12-23T08:25:28.381Z,8.84
2022-12-23T08:27:55.028Z,8.56
2022-12-23T08:30:21.702Z,8.72
2022-12-23T08:32:48.340Z,9.01
2022-12-23T08:35:14.985Z,8.95
2022-12-23T08:37:41.672Z,8.75
2022-12-23T08:40:08.666Z,8.72
2022-12-23T08:42:35.298Z,8.38
2022-12-23T08:45:02.441Z,8.48
2022-12-23T08:47:29.075Z,8.68
2022-12-23T08:49:55.742Z,8.75
2022-12-23T08:52:22.422Z,8.84
2022-12-23T08:54:49.091Z,9.06
2022-12-23T08:57:15.738Z,8.49
2022-12-23T08:59:42.421Z,8.38
2022-12-23T09:02:10.126Z,9.05
2022-12-23T09:04:37.003Z,9.25
2022-12-23T09:07:03.651Z,9.15
2022-12-23T09:09:30.323Z,9.17
2022-12-23T09:11:56.949Z,8.94
2022-12-23T09:14:23.603Z,8.68
2022-12-23T09:16:51.033Z,8.78
2022-12-23T09:19:17.684Z,8.87
2022-12-23T09:21:44.373Z,9.12
2022-12-23T09:24:11.045Z,9.03
2022-12-23T09:26:37.739Z,8.98
2022-12-23T09:29:04.465Z,8.94
2022-12-23T09:31:36.508Z,8.86
2022-12-23T09:34:03.737Z,9.24
2022-12-23T09:36:30.561Z,9.71
2022-12-23T09:38:57.654Z,10.21
2022-12-23T09:41:30.326Z,10.27
2022-12-23T09:44:15.423Z,10.77
2022-12-23T09:46:45.375Z,10.97
2022-12-23T09:49:12.930Z,10.93
2022-12-23T09:51:39.600Z,11.23
2022-12-23T09:54:19.932Z,11.47
2022-12-23T09:56:52.597Z,11.39
2022-12-23T09:59:22.389Z,11.63
2022-12-23T10:01:51.022Z,11.75
2022-12-23T10:04:23.576Z,12.05
2022-12-23T10:06:59.334Z,11.98
2022-12-23T10:09:29.705Z,12.39
2022-12-23T10:11:57.262Z,12.50
2022-12-23T10:14:24.800Z,13.25
2022-12-23T10:16:55.757Z,12.86
2022-12-23T10:19:25.496Z,13.06
2022-12-23T10:21:53.068Z,13.23
2022-12-23T10:24:23.712Z,13.10
2022-12-23T10:26:50.332Z,13.19
2022-12-23T10:29:19.258Z,12.90
2022-12-23T10:31:46.796Z,13.44
2022-12-23T10:34:23.691Z,13.96
2022-12-23T10:37:00.544Z,13.98
2022-12-23T10:39:27.297Z,13.69
2022-12-23T10:41:53.918Z,14.22
2022-12-23T10:44:20.555Z,13.98
2022-12-23T10:46:47.228Z,13.65
2022-12-23T10:49:20.869Z,13.63
2022-12-23T10:51:55.003Z,13.45
2022-12-23T10:54:23.984Z,13.52
2022-12-23T10:56:50.673Z,14.02
2022-12-23T10:59:19.454Z,13.88
2022-12-23T11:01:47.758Z,13.81
2022-12-23T11:04:14.823Z,13.85
2022-12-23T11:06:42.814Z,13.27
2022-12-23T11:09:19.924Z,13.09
2022-12-23T11:12:02.866Z,13.50
2022-12-23T11:14:35.867Z,13.37
2022-12-23T11:17:03.688Z,13.42
2022-12-23T11:19:30.374Z,13.12
2022-12-23T11:22:00.009Z,13.52
2022-12-23T11:24:27.967Z,13.51
2022-12-23T11:27:01.210Z,13.55
2022-12-23T11:29:34.930Z,14.03
2022-12-23T11:32:02.215Z,14.11
2022-12-23T11:34:29.603Z,14.59
2022-12-23T11:37:01.807Z,14.60
2022-12-23T11:39:33.078Z,14.22
2022-12-23T11:42:05.481Z,14.06
2022-12-23T11:44:41.902Z,13.97
2022-12-23T11:47:18.647Z,13.94
2022-12-23T11:49:49.763Z,14.00
2022-12-23T11:52:18.609Z,14.37
2022-12-23T11:54:55.853Z,15.11
2022-12-23T11:57:33.587Z,14.69
2022-12-23T12:00:00.880Z,15.04
2022-12-23T12:02:42.425Z,15.34
2022-12-23T12:05:17.551Z,15.38
2022-12-23T12:07:44.590Z,15.48
2022-12-23T12:10:31.845Z,15.58
2022-12-23T12:12:59.905Z,15.60
2022-12-23T12:15:26.863Z,15.50
2022-12-23T12:17:53.517Z,15.39
2022-12-23T12:20:39.191Z,15.25
2022-12-23T12:23:17.383Z,15.56
2022-12-23T12:25:50.737Z,15.39
2022-12-23T12:28:20.871Z,14.84
2022-12-23T12:30:48.932Z,15.62
2022-12-23T12:33:15.590Z,15.08
2022-12-23T12:35:43.939Z,14.82
2022-12-23T12:38:16.614Z,14.86
2022-12-23T12:40:45.352Z,14.93
2022-12-23T12:43:16.349Z,15.23
2022-12-23T12:45:51.955Z,15.25
2022-12-23T12:48:39.122Z,14.66
2022-12-23T12:51:09.778Z,14.55
2022-12-23T12:53:36.514Z,14.43
2022-12-23T12:56:06.875Z,14.61
2022-12-23T12:58:33.519Z,14.94
2022-12-23T13:01:00.223Z,14.78
2022-12-23T13:03:32.060Z,14.51
2022-12-23T13:06:01.687Z,14.29
2022-12-23T13:08:43.715Z,14.06
2022-12-23T13:11:13.500Z,14.07
2022-12-23T13:13:43.464Z,14.11
2022-12-23T13:16:26.390Z,14.62
2022-12-23T13:19:11.507Z,14.93
2022-12-23T13:21:41.079Z,15.17
2022-12-23T13:24:20.668Z,15.25
2022-12-23T13:27:00.689Z,14.88
2022-12-23T13:29:32.155Z,14.45
2022-12-23T13:32:19.011Z,14.79
2022-12-23T13:34:49.707Z,14.63
2022-12-23T13:37:45.730Z,14.22
2022-12-23T13:40:17.972Z,14.34
2022-12-23T13:42:46.357Z,14.25
2022-12-23T13:45:13.753Z,14.32
2022-12-23T13:47:43.437Z,14.30
2022-12-23T13:50:10.139Z,14.38
2022-12-23T13:52:43.957Z,14.07
2022-12-23T13:55:27.554Z,14.36
2022-12-23T13:57:58.931Z,14.90
2022-12-23T14:00:27.292Z,14.88
2022-12-23T14:03:02.259Z,14.82
2022-12-23T14:05:29.083Z,14.24
2022-12-23T14:07:55.960Z,14.85
2022-12-23T14:10:23.339Z,15.57
2022-12-23T14:12:50.479Z,15.76
2022-12-23T14:15:29.466Z,15.23
2022-12-23T14:18:04.602Z,15.89
2022-12-23T14:20:34.364Z,15.95
2022-12-23T14:23:04.176Z,16.47
2022-12-23T14:25:33.744Z,16.41
2022-12-23T14:28:00.412Z,15.71
2022-12-23T14:30:27.088Z,16.54
2022-12-23T14:32:54.281Z,16.08
2022-12-23T14:35:28.324Z,16.26
2022-12-23T14:38:05.554Z,15.66
2022-12-23T14:40:38.381Z,15.66
2022-12-23T14:43:31.631Z,15.51
2022-12-23T14:46:02.001Z,16.79
2022-12-23T14:48:34.667Z,16.31
2022-12-23T14:51:10.471Z,15.75
2022-12-23T14:53:37.966Z,14.68
2022-12-23T14:56:36.945Z,14.60
2022-12-23T14:59:15.588Z,15.61
2022-12-23T15:01:48.268Z,16.13
2022-12-23T15:04:14.976Z,16.75
2022-12-23T15:06:42.553Z,16.17
2022-12-23T15:09:10.417Z,16.35
2022-12-23T15:11:37.566Z,16.29
2022-12-23T15:14:05.183Z,15.68
2022-12-23T15:16:36.523Z,16.45
2022-12-23T15:19:13.218Z,15.95
2022-12-23T15:21:39.868Z,15.83
2022-12-23T15:24:09.320Z,15.50
2022-12-23T15:26:36.083Z,16.11
2022-12-23T15:29:03.531Z,15.71
2022-12-23T15:31:35.401Z,15.39
2022-12-23T15:34:06.110Z,15.42
2022-12-23T15:36:37.538Z,14.18
2022-12-23T15:39:08.438Z,14.72
2022-12-23T15:41:41.329Z,14.94
2022-12-23T15:44:09.823Z,15.77
2022-12-23T15:46:38.967Z,15.53
2022-12-23T15:49:06.821Z,15.24
2022-12-23T15:52:05.669Z,15.83
2022-12-23T15:54:21.803Z,15.74
2022-12-23T15:56:49.575Z,14.96
2022-12-23T15:59:24.217Z,14.39
2022-12-23T16:01:51.119Z,14.28
2022-12-23T16:04:24.895Z,14.56
2022-12-23T16:06:52.032Z,14.34
2022-12-23T16:09:19.365Z,15.58
2022-12-23T16:11:56.916Z,14.85
2022-12-23T16:14:39.875Z,14.53
2022-12-23T16:17:09.626Z,15.35
2022-12-23T16:19:39.901Z,16.06
2022-12-23T16:22:27.271Z,16.23
2022-12-23T16:24:57.663Z,16.43
2022-12-23T16:27:37.842Z,15.89
2022-12-23T16:30:13.627Z,16.58
2022-12-23T16:32:45.046Z,16.20
2022-12-23T16:35:12.334Z,15.80
2022-12-23T16:37:39.086Z,15.16
2022-12-23T16:40:09.908Z,15.33
2022-12-23T16:42:36.579Z,15.28
2022-12-23T16:45:03.747Z,15.25
2022-12-23T16:47:30.398Z,14.95
2022-12-23T16:49:57.071Z,15.26
2022-12-23T16:52:23.795Z,14.55
2022-12-23T16:54:50.439Z,14.69
2022-12-23T16:57:17.052Z,14.66
2022-12-23T16:59:43.725Z,14.35
2022-12-23T17:02:17.047Z,14.08
2022-12-23T17:04:43.816Z,14.55
2022-12-23T17:07:12.059Z,14.86
2022-12-23T17:09:38.718Z,14.99
2022-12-23T17:12:05.919Z,14.93
2022-12-23T17:14:32.595Z,15.17
2022-12-23T17:16:59.357Z,15.05
2022-12-23T17:19:29.015Z,14.80
2022-12-23T17:21:58.213Z,14.40
2022-12-23T17:24:25.649Z,15.18
2022-12-23T17:26:52.777Z,15.15
2022-12-23T17:29:19.600Z,15.33
2022-12-23T17:31:47.143Z,15.79
2022-12-23T17:34:14.920Z,15.69
2022-12-23T17:36:47.616Z,15.71
2022-12-23T17:39:16.374Z,15.67
2022-12-23T17:41:43.061Z,15.70
2022-12-23T17:44:10.522Z,15.17
2022-12-23T17:46:37.155Z,14.71
2022-12-23T17:49:03.918Z,14.96
2022-12-23T17:51:30.591Z,14.78
2022-12-23T17:53:58.303Z,15.21
2022-12-23T17:56:26.053Z,14.70
2022-12-23T17:58:52.932Z,15.19
2022-12-23T18:01:21.166Z,14.03
2022-12-23T18:03:47.903Z,15.04
2022-12-23T18:06:15.419Z,15.09
2022-12-23T18:08:42.167Z,15.64
2022-12-23T18:11:09.119Z,15.50
2022-12-23T18:13:35.991Z,14.87
2022-12-23T18:16:02.678Z,14.64
2022-12-23T18:18:41.788Z,15.02
2022-12-23T18:21:14.012Z,15.70
2022-12-23T18:23:40.724Z,16.09
2022-12-23T18:26:07.399Z,15.79
2022-12-23T18:28:34.061Z,16.90
2022-12-23T18:31:00.771Z,16.77
2022-12-23T18:33:29.547Z,16.25
2022-12-23T18:35:56.382Z,15.46
2022-12-23T18:38:23.157Z,15.62
2022-12-23T18:40:52.606Z,15.78
2022-12-23T18:43:20.512Z,15.79
2022-12-23T18:45:52.430Z,15.78
2022-12-23T18:48:19.701Z,15.75
2022-12-23T18:50:46.933Z,15.77
2022-12-23T18:53:23.390Z,15.97
2022-12-23T18:55:50.911Z,16.17
2022-12-23T18:58:18.182Z,15.96
2022-12-23T19:00:44.991Z,15.85
2022-12-23T19:03:18.932Z,15.50
2022-12-23T19:05:46.717Z,15.13
2022-12-23T19:08:13.373Z,15.37
2022-12-23T19:10:40.100Z,16.13
2022-12-23T19:13:06.732Z,15.24
2022-12-23T19:15:33.428Z,14.41
2022-12-23T19:18:00.122Z,14.79
2022-12-23T19:20:26.808Z,14.89
2022-12-23T19:22:53.466Z,15.02
2022-12-23T19:25:20.241Z,14.86
2022-12-23T19:27:46.875Z,14.74
2022-12-23T19:30:16.645Z,14.80
2022-12-23T19:32:43.495Z,14.92
2022-12-23T19:35:12.525Z,15.72
2022-12-23T19:37:39.159Z,15.98
2022-12-23T19:40:06.389Z,15.38
2022-12-23T19:42:34.091Z,15.62
2022-12-23T19:45:01.083Z,15.80
2022-12-23T19:47:27.739Z,16.15
2022-12-23T19:49:54.403Z,15.71
2022-12-23T19:52:21.081Z,15.76
2022-12-23T19:54:47.813Z,15.24
2022-12-23T19:57:14.460Z,15.56
2022-12-23T19:59:41.115Z,15.33
2022-12-23T20:02:09.236Z,15.81
2022-12-23T20:04:35.924Z,16.05
2022-12-23T20:07:02.567Z,15.73
2022-12-23T20:09:29.204Z,15.65
2022-12-23T20:11:55.859Z,15.54
2022-12-23T20:14:22.568Z,15.69
2022-12-23T20:16:49.549Z,15.65
2022-12-23T20:19:16.496Z,15.54
2022-12-23T20:21:43.154Z,15.45
2022-12-23T20:24:09.836Z,15.45
2022-12-23T20:26:36.504Z,15.31
2022-12-23T20:29:03.158Z,14.31
2022-12-23T20:31:30.713Z,14.72
2022-12-23T20:33:57.625Z,14.75
2022-12-23T20:36:25.664Z,14.81
2022-12-23T20:38:52.537Z,14.37
2022-12-23T20:41:21.073Z,15.48
2022-12-23T20:44:02.883Z,16.06
2022-12-23T20:46:34.604Z,15.60
2022-12-23T20:49:01.297Z,15.79
2022-12-23T20:51:27.956Z,15.82
2022-12-23T20:53:55.604Z,15.87
2022-12-23T20:56:22.566Z,16.12
2022-12-23T20:58:55.265Z,16.21
2022-12-23T21:01:22.409Z,15.70
2022-12-23T21:03:49.065Z,15.80
2022-12-23T21:06:15.728Z,15.84
2022-12-23T21:08:43.450Z,17.05
2022-12-23T21:11:10.392Z,16.22
2022-12-23T21:13:38.198Z,14.95
2022-12-23T21:16:05.930Z,15.26
2022-12-23T21:18:33.215Z,15.69
2022-12-23T21:21:00.332Z,15.41
2022-12-23T21:23:27.459Z,15.41
2022-12-23T21:26:14.385Z,15.00
2022-12-23T21:28:41.419Z,15.02
2022-12-23T21:31:08.391Z,14.13
2022-12-23T21:33:36.073Z,13.89
2022-12-23T21:36:02.837Z,14.13
2022-12-23T21:38:33.546Z,13.66
2022-12-23T21:41:00.920Z,13.43
2022-12-23T21:43:27.554Z,13.68
2022-12-23T21:46:01.120Z,13.70
2022-12-23T21:48:27.911Z,13.67
2022-12-23T21:50:54.577Z,13.63
2022-12-23T21:53:21.289Z,13.10
2022-12-23T21:55:47.976Z,12.64
2022-12-23T21:58:14.625Z,12.64
2022-12-23T22:00:41.280Z,12.43
2022-12-23T22:03:07.963Z,12.65
2022-12-23T22:05:34.585Z,12.40
2022-12-23T22:08:01.586Z,13.20
2022-12-23T22:10:28.301Z,12.70
2022-12-23T22:12:55.042Z,12.62
2022-12-23T22:15:21.795Z,13.17
2022-12-23T22:17:48.809Z,13.43
2022-12-23T22:20:15.446Z,13.05
2022-12-23T22:22:42.067Z,12.84
2022-12-23T22:25:08.956Z,12.54
2022-12-23T22:27:35.635Z,12.68
2022-12-23T22:30:02.356Z,12.72
2022-12-23T22:32:29.018Z,13.31
2022-12-23T22:34:55.658Z,12.96
2022-12-23T22:37:22.301Z,12.88
2022-12-23T22:39:49.055Z,12.93
2022-12-23T22:42:15.799Z,12.39
2022-12-23T22:44:42.412Z,12.67
2022-12-23T22:47:09.268Z,12.92
2022-12-23T22:49:36.059Z,12.54
2022-12-23T22:52:02.776Z,12.68
2022-12-23T22:54:29.560Z,12.45
2022-12-23T22:56:56.191Z,12.45
2022-12-23T22:59:23.697Z,12.45
2022-12-23T23:01:50.912Z,12.88
2022-12-23T23:04:17.710Z,13.11
2022-12-23T23:06:44.426Z,13.05
2022-12-23T23:09:14.983Z,13.20
2022-12-23T23:11:41.895Z,12.92
2022-12-23T23:14:08.544Z,12.61
2022-12-23T23:16:35.379Z,12.88
2022-12-23T23:19:02.152Z,13.42
2022-12-23T23:21:28.851Z,12.91
2022-12-23T23:23:55.514Z,12.95
2022-12-23T23:26:26.796Z,12.50
2022-12-23T23:28:53.884Z,12.40
2022-12-23T23:34:07.193Z,12.68
2022-12-23T23:36:34.086Z,13.08
2022-12-23T23:39:00.836Z,13.04
2022-12-23T23:41:27.606Z,13.06
2022-12-23T23:43:54.282Z,13.18
2022-12-23T23:46:21.009Z,13.17
2022-12-23T23:48:48.011Z,13.34
2022-12-23T23:51:14.688Z,13.14
2022-12-23T23:53:41.327Z,12.51
2022-12-23T23:56:08.470Z,12.38
2022-12-23T23:58:35.467Z,12.80
